Bloomington (BMI/KBMI)

Map

Information

Location
Bloomington, IL
Local Time
17:35 / 5:35 pm
GMT Time
22:35 / 10:35 pm
Gates
A1
No FAA reported delays
METAR KBMI 242156Z 04007KT 10SM SCT031 26/18 A3004 RMK AO2 SLP183 T02610183
TAF KBMI 242004Z 2420/2518 05009KT P6SM BKN035 FM242300 06006KT P6SM SCT250 TEMPO 2508/2512 5SM BR